Time;durP1;ratioP1;P1;durP2;ratioP2;P2;SDS_P1;SDS_P2;PMS_P1;PMS_P2;Temp;Humidity;BMP_temperature;BMP_pressure;BME280_temperature;BME280_humidity;BME280_pressure;Samples;Min_cycle;Max_cycle;Signal;HPM_P1;HPM_P2
2021/10/02 00:01:43;;;;;;;;;;;12.50;99.90;;;;;;4965641;28;20038;-70
2021/10/02 00:33:33;;;;;;;7.40;5.28;;;12.90;99.90;;;;;;5000153;28;20077;-69
2021/10/02 00:41:10;;;;;;;;;;;12.90;99.90;;;;;;4988252;28;20183;-71
2021/10/02 00:45:42;;;;;;;;;;;12.90;99.90;;;;;;4998024;28;20030;-68
2021/10/02 00:48:10;;;;;;;5.20;3.80;;;12.90;99.90;;;;;;4998728;28;20293;-69
2021/10/02 00:50:37;;;;;;;5.25;3.97;;;12.90;99.90;;;;;;4994664;28;20062;-69
2021/10/02 00:53:04;;;;;;;7.75;3.88;;;12.90;99.90;;;;;;4996910;28;20068;-69
2021/10/02 00:55:31;;;;;;;4.78;3.40;;;12.90;99.90;;;;;;4995231;28;20363;-69
2021/10/02 00:57:58;;;;;;;4.32;3.58;;;12.90;99.90;;;;;;4998485;28;20054;-68
2021/10/02 01:00:25;;;;;;;4.18;3.70;;;12.80;99.90;;;;;;4995583;28;20351;-68
2021/10/02 01:03:20;;;;;;;5.65;3.58;;;12.60;99.90;;;;;;5010496;28;20147;-68
2021/10/02 01:06:01;;;;;;;4.95;3.30;;;12.30;99.90;;;;;;4995714;28;20500;-69
2021/10/02 01:08:36;;;;;;;3.38;3.00;;;12.10;99.90;;;;;;4995950;28;20044;-68
2021/10/02 01:11:13;;;;;;;6.82;3.20;;;11.90;99.90;;;;;;4992603;28;20580;-68
2021/10/02 01:14:02;;;;;;;6.75;3.80;;;11.80;99.90;;;;;;4996884;28;20518;-68
2021/10/02 01:16:36;;;;;;;3.55;2.70;;;11.60;99.90;;;;;;4996748;28;20556;-69
2021/10/02 01:19:06;;;;;;;8.60;3.28;;;11.60;99.90;;;;;;4999126;28;20097;-69
2021/10/02 01:22:08;;;;;;;7.63;3.38;;;11.50;99.90;;;;;;4974725;28;20034;-69
2021/10/02 01:25:14;;;;;;;6.03;3.22;;;11.40;99.90;;;;;;4996611;28;20075;-72
2021/10/02 01:27:49;;;;;;;5.97;3.88;;;11.20;99.90;;;;;;4997479;28;20060;-73
2021/10/02 01:30:23;;;;;;;9.57;4.35;;;11.10;99.90;;;;;;4997061;28;20386;-71
2021/10/02 01:33:00;;;;;;;7.05;4.50;;;11.10;99.90;;;;;;4992236;28;20049;-74
2021/10/02 01:35:38;;;;;;;9.02;4.10;;;11.00;99.90;;;;;;4978168;28;21155;-73
2021/10/02 01:49:18;;;;;;;9.00;4.57;;;11.10;99.90;;;;;;5000052;28;20476;-72
2021/10/02 01:51:47;;;;;;;10.20;4.38;;;11.10;99.90;;;;;;4992887;28;20137;-73
2021/10/02 01:54:15;;;;;;;8.52;4.50;;;11.10;99.90;;;;;;4989902;28;20069;-73
2021/10/02 01:56:42;;;;;;;8.88;4.95;;;11.00;99.90;;;;;;4978793;28;20065;-73
2021/10/02 01:59:12;;;;;;;7.03;4.97;;;11.00;99.90;;;;;;5013843;28;20478;-73
2021/10/02 02:01:44;;;;;;;5.55;4.40;;;11.00;99.90;;;;;;4957753;28;20066;-74
2021/10/02 02:04:13;;;;;;;5.20;3.50;;;11.20;99.90;;;;;;4995347;28;20049;-74
2021/10/02 02:06:42;;;;;;;6.45;3.67;;;11.20;99.90;;;;;;4995494;28;20362;-73
2021/10/02 02:09:12;;;;;;;9.85;3.83;;;11.10;99.90;;;;;;4993839;28;21073;-72
2021/10/02 02:11:39;;;;;;;9.65;4.50;;;11.30;99.90;;;;;;4980212;28;20065;-73
2021/10/02 02:14:11;;;;;;;8.38;3.63;;;11.30;99.90;;;;;;4997424;28;20534;-73
2021/10/02 02:16:41;;;;;;;7.00;4.55;;;11.30;99.90;;;;;;4985436;28;20054;-72
2021/10/02 02:19:08;;;;;;;10.05;4.63;;;11.20;99.90;;;;;;4997717;28;20274;-73
2021/10/02 02:21:35;;;;;;;9.25;4.45;;;11.20;99.90;;;;;;4988558;28;20482;-72
2021/10/02 02:24:02;;;;;;;7.88;4.05;;;11.20;99.90;;;;;;4979014;28;20054;-72
2021/10/02 02:26:29;;;;;;;8.98;5.05;;;11.20;99.90;;;;;;4976619;28;20034;-75
2021/10/02 02:28:57;;;;;;;6.80;4.22;;;11.20;99.90;;;;;;4978471;28;20046;-72
2021/10/02 02:31:24;;;;;;;9.32;5.25;;;11.10;99.90;;;;;;4965074;28;20047;-73
2021/10/02 02:33:53;;;;;;;9.25;4.65;;;11.00;99.90;;;;;;4989772;28;20049;-73
2021/10/02 02:36:21;;;;;;;11.93;4.65;;;11.00;99.90;;;;;;4995161;28;20130;-72
2021/10/02 02:38:48;;;;;;;8.38;4.53;;;11.00;99.90;;;;;;4977410;28;20054;-73
2021/10/02 02:41:15;;;;;;;7.30;4.45;;;11.00;99.90;;;;;;4995273;28;20042;-72
2021/10/02 02:43:42;;;;;;;8.23;4.55;;;11.00;99.90;;;;;;4995104;28;20034;-72
2021/10/02 02:46:24;;;;;;;6.97;4.55;;;11.10;99.90;;;;;;4993880;28;20049;-72
2021/10/02 02:49:10;;;;;;;7.20;4.68;;;11.10;99.90;;;;;;4988751;28;20046;-73
2021/10/02 02:51:55;;;;;;;9.40;4.40;;;11.20;99.90;;;;;;4961008;28;20056;-73
2021/10/02 02:54:38;;;;;;;5.85;4.10;;;11.10;99.90;;;;;;4980510;28;20060;-73
2021/10/02 02:57:13;;;;;;;7.18;5.18;;;11.10;99.90;;;;;;4994884;28;20073;-73
2021/10/02 02:59:49;;;;;;;13.93;5.95;;;11.10;99.90;;;;;;4997492;28;20251;-72
2021/10/02 03:02:22;;;;;;;6.82;4.40;;;11.10;99.90;;;;;;4981649;28;20639;-73
2021/10/02 03:04:53;;;;;;;6.70;4.38;;;11.10;99.90;;;;;;4976691;28;20042;-72
2021/10/02 03:07:23;;;;;;;9.65;5.07;;;11.10;99.90;;;;;;4981280;28;20049;-72
2021/10/02 03:09:52;;;;;;;8.35;4.85;;;11.10;99.90;;;;;;4982514;28;20141;-73
2021/10/02 03:12:25;;;;;;;9.23;5.03;;;11.20;99.90;;;;;;4981315;28;20050;-72
2021/10/02 03:14:53;;;;;;;7.38;4.47;;;11.20;99.90;;;;;;4997502;28;20070;-72
2021/10/02 03:17:21;;;;;;;6.47;4.75;;;11.20;99.90;;;;;;4990356;28;20041;-72
2021/10/02 03:19:50;;;;;;;8.65;4.50;;;11.10;99.90;;;;;;4979977;28;20423;-71
2021/10/02 03:22:17;;;;;;;7.40;4.28;;;11.10;99.90;;;;;;4977141;28;20470;-72
2021/10/02 03:24:46;;;;;;;6.80;4.55;;;11.10;99.90;;;;;;4961336;28;20038;-71
2021/10/02 03:27:13;;;;;;;4.75;4.15;;;11.20;99.90;;;;;;4997082;28;20068;-71
2021/10/02 03:29:41;;;;;;;6.95;3.95;;;11.20;99.90;;;;;;4981439;28;20072;-71
2021/10/02 03:32:09;;;;;;;6.60;3.75;;;11.20;99.90;;;;;;4964152;28;20587;-71
2021/10/02 03:34:37;;;;;;;9.10;4.00;;;11.20;99.90;;;;;;4959173;28;20561;-71
2021/10/02 03:37:04;;;;;;;7.13;3.90;;;11.10;99.90;;;;;;4995705;28;20466;-71
2021/10/02 03:39:31;;;;;;;8.10;4.03;;;11.20;99.90;;;;;;4999009;28;20104;-73
2021/10/02 03:42:14;;;;;;;6.38;4.50;;;11.20;99.90;;;;;;4998736;28;20042;-70
2021/10/02 03:44:44;;;;;;;6.82;4.63;;;11.20;99.90;;;;;;4997830;28;20341;-70
2021/10/02 03:47:13;;;;;;;6.05;4.20;;;11.20;99.90;;;;;;4977520;28;20433;-71
2021/10/02 03:49:41;;;;;;;8.68;4.80;;;11.20;99.90;;;;;;4975208;28;20100;-70
2021/10/02 03:52:09;;;;;;;10.13;4.95;;;11.30;99.90;;;;;;4987485;28;20132;-71
2021/10/02 03:54:36;;;;;;;8.38;5.03;;;11.30;99.90;;;;;;4976837;28;20038;-71
2021/10/02 03:57:04;;;;;;;4.93;4.28;;;11.30;99.90;;;;;;4984982;28;20134;-71
2021/10/02 03:59:31;;;;;;;7.28;5.25;;;11.30;99.90;;;;;;4970796;28;20569;-71
2021/10/02 04:01:58;;;;;;;5.47;4.53;;;11.30;99.90;;;;;;4981182;28;20525;-70
2021/10/02 04:04:25;;;;;;;11.15;5.03;;;11.30;99.90;;;;;;4998138;28;20050;-70
2021/10/02 04:06:52;;;;;;;7.50;4.30;;;11.10;99.90;;;;;;4992986;28;20041;-70
2021/10/02 04:09:20;;;;;;;8.73;5.25;;;11.20;99.90;;;;;;4996638;28;20096;-70
2021/10/02 04:11:47;;;;;;;11.25;4.93;;;11.20;99.90;;;;;;4980040;28;20042;-71
2021/10/02 04:14:14;;;;;;;5.80;3.92;;;11.20;99.90;;;;;;4967550;28;20596;-71
2021/10/02 04:16:41;;;;;;;6.68;4.80;;;11.20;99.90;;;;;;4973501;28;20061;-71
2021/10/02 04:19:08;;;;;;;10.38;4.55;;;11.20;99.90;;;;;;4997626;28;20053;-70
2021/10/02 04:21:35;;;;;;;6.15;4.07;;;11.20;99.90;;;;;;4964218;28;20060;-70
2021/10/02 04:24:02;;;;;;;9.55;4.68;;;11.20;99.90;;;;;;4996451;28;20316;-70
2021/10/02 04:26:29;;;;;;;6.68;3.95;;;11.20;99.90;;;;;;4995919;28;20050;-70
2021/10/02 04:28:56;;;;;;;8.02;3.92;;;11.20;99.90;;;;;;4995148;28;20049;-70
2021/10/02 04:31:23;;;;;;;6.93;3.63;;;11.20;99.90;;;;;;4975156;28;20038;-70
2021/10/02 04:33:50;;;;;;;5.65;4.10;;;11.20;99.90;;;;;;4983841;28;20438;-70
2021/10/02 04:36:16;;;;;;;7.13;4.03;;;11.20;99.90;;;;;;4996507;28;20128;-71
2021/10/02 04:38:44;;;;;;;8.30;4.40;;;11.20;99.90;;;;;;4994767;28;20041;-70
2021/10/02 04:41:10;;;;;;;6.03;3.65;;;11.40;99.90;;;;;;4996727;28;20339;-71
2021/10/02 04:43:41;;;;;;;9.40;5.15;;;11.40;99.90;;;;;;4996702;28;20386;-71
2021/10/02 04:46:12;;;;;;;6.10;4.47;;;11.40;99.90;;;;;;4971308;28;20289;-70
2021/10/02 04:48:40;;;;;;;7.40;4.65;;;11.40;99.90;;;;;;5004146;28;20137;-70
2021/10/02 04:51:08;;;;;;;7.05;4.47;;;11.50;99.90;;;;;;4993820;28;20100;-70
2021/10/02 04:53:36;;;;;;;11.02;4.18;;;11.50;99.90;;;;;;4960635;28;20065;-70
2021/10/02 04:56:12;;;;;;;6.50;4.07;;;11.60;99.90;;;;;;4964897;28;20052;-70
2021/10/02 04:58:40;;;;;;;7.68;4.35;;;11.50;99.90;;;;;;4995297;28;20698;-70
2021/10/02 05:01:09;;;;;;;7.63;4.28;;;11.40;99.90;;;;;;4992284;28;20050;-70
2021/10/02 05:03:37;;;;;;;10.32;4.20;;;11.30;99.90;;;;;;4979051;28;20380;-70
2021/10/02 05:06:05;;;;;;;6.72;4.10;;;11.30;99.90;;;;;;4959428;28;20427;-71
2021/10/02 05:08:33;;;;;;;6.05;4.10;;;11.40;99.90;;;;;;4979201;28;20050;-72
2021/10/02 05:11:01;;;;;;;8.80;4.18;;;11.40;99.90;;;;;;4996143;28;20072;-71
2021/10/02 05:13:28;;;;;;;6.38;4.43;;;11.40;99.90;;;;;;4997160;28;20164;-70
2021/10/02 05:15:55;;;;;;;5.55;3.97;;;11.40;99.90;;;;;;4988430;28;20573;-71
2021/10/02 05:18:22;;;;;;;8.13;4.65;;;11.40;99.90;;;;;;4979020;28;20052;-70
2021/10/02 05:20:49;;;;;;;6.20;3.78;;;11.40;99.90;;;;;;4978583;28;20324;-71
2021/10/02 05:23:16;;;;;;;6.40;3.72;;;11.40;99.90;;;;;;4986749;28;20042;-70
2021/10/02 05:25:44;;;;;;;6.55;4.05;;;11.50;99.90;;;;;;4978096;28;20050;-70
2021/10/02 05:28:10;;;;;;;8.02;4.70;;;11.60;99.90;;;;;;4976548;28;20053;-70
2021/10/02 05:30:37;;;;;;;6.28;4.38;;;11.70;99.90;;;;;;4970496;28;20052;-71
2021/10/02 05:33:04;;;;;;;5.75;4.63;;;11.60;99.90;;;;;;4975848;28;20041;-72
2021/10/02 05:35:33;;;;;;;8.45;3.80;;;11.60;99.90;;;;;;4976162;28;20042;-71
2021/10/02 05:38:00;;;;;;;7.07;3.70;;;11.60;99.90;;;;;;4975162;28;20062;-71
2021/10/02 05:40:28;;;;;;;6.68;3.50;;;11.60;99.90;;;;;;4986938;28;20155;-71
2021/10/02 05:42:55;;;;;;;7.95;3.75;;;11.60;99.90;;;;;;4996339;28;20056;-71
2021/10/02 05:45:22;;;;;;;11.60;3.72;;;11.70;99.90;;;;;;4994971;28;20275;-71
2021/10/02 05:47:49;;;;;;;6.40;3.78;;;11.60;99.90;;;;;;4994866;28;20568;-71
2021/10/02 05:50:15;;;;;;;6.82;3.42;;;11.70;99.90;;;;;;4976248;28;20064;-72
2021/10/02 05:52:42;;;;;;;7.57;3.72;;;11.70;99.90;;;;;;4982606;28;20161;-71
2021/10/02 05:55:10;;;;;;;6.43;3.60;;;11.70;99.90;;;;;;4959541;28;20058;-71
2021/10/02 05:57:37;;;;;;;6.32;3.47;;;11.80;99.90;;;;;;4994519;28;20061;-72
2021/10/02 06:00:07;;;;;;;5.97;3.50;;;11.70;99.90;;;;;;4996117;28;20540;-72
2021/10/02 06:02:37;;;;;;;5.90;3.80;;;11.70;99.90;;;;;;4962791;28;20052;-70
2021/10/02 06:05:05;;;;;;;6.30;4.05;;;11.80;99.90;;;;;;4978747;28;20157;-71
2021/10/02 06:07:32;;;;;;;4.13;3.10;;;11.70;99.90;;;;;;4994945;28;20367;-71
2021/10/02 06:09:58;;;;;;;5.80;3.85;;;11.80;99.90;;;;;;4994965;28;20067;-71
2021/10/02 06:12:25;;;;;;;5.10;3.70;;;11.80;99.90;;;;;;4994868;28;20096;-72
2021/10/02 06:14:52;;;;;;;5.43;3.28;;;11.90;99.90;;;;;;4995565;28;20065;-71
2021/10/02 06:17:19;;;;;;;7.20;3.67;;;11.90;99.90;;;;;;4980700;28;20047;-71
2021/10/02 06:19:46;;;;;;;6.20;3.33;;;11.90;99.90;;;;;;4995018;28;20046;-72
2021/10/02 06:22:12;;;;;;;4.65;3.22;;;11.90;99.90;;;;;;4985681;28;20063;-72
2021/10/02 06:24:39;;;;;;;9.30;3.55;;;11.90;99.90;;;;;;4978152;28;20061;-71
2021/10/02 06:27:06;;;;;;;6.30;3.55;;;11.90;99.90;;;;;;4974613;28;20349;-70
2021/10/02 06:29:35;;;;;;;7.53;4.03;;;11.90;99.90;;;;;;4974848;28;20389;-71
2021/10/02 06:32:02;;;;;;;6.20;3.50;;;11.90;99.90;;;;;;4985304;28;20065;-70
2021/10/02 06:34:29;;;;;;;5.78;3.22;;;11.90;99.90;;;;;;4996500;28;20136;-70
2021/10/02 06:36:56;;;;;;;4.95;3.40;;;11.90;99.90;;;;;;5000154;28;20056;-70
2021/10/02 06:39:23;;;;;;;5.70;3.50;;;12.00;99.90;;;;;;4966875;28;20534;-69
2021/10/02 06:41:49;;;;;;;4.90;3.33;;;12.00;99.90;;;;;;4993887;28;20510;-71
2021/10/02 06:44:16;;;;;;;4.85;4.05;;;12.00;99.90;;;;;;5000798;28;20046;-72
2021/10/02 06:46:43;;;;;;;7.18;3.35;;;12.10;99.90;;;;;;4993342;28;20096;-71
2021/10/02 06:49:10;;;;;;;5.68;3.72;;;12.10;99.90;;;;;;4964867;28;20057;-71
2021/10/02 06:51:37;;;;;;;7.72;3.83;;;12.20;99.90;;;;;;4978288;28;20061;-72
2021/10/02 06:54:04;;;;;;;5.57;3.35;;;12.20;99.90;;;;;;4979308;28;20046;-71
2021/10/02 06:56:30;;;;;;;7.10;3.85;;;12.20;99.90;;;;;;4980207;28;20132;-71
2021/10/02 06:58:57;;;;;;;9.48;3.80;;;12.20;99.90;;;;;;5000203;28;20049;-71
2021/10/02 07:01:27;;;;;;;6.57;3.60;;;12.20;99.90;;;;;;4980817;28;20053;-72
2021/10/02 07:03:57;;;;;;;4.40;3.38;;;12.30;99.90;;;;;;4999448;28;20544;-72
2021/10/02 07:06:24;;;;;;;7.93;4.18;;;12.30;99.90;;;;;;4999150;28;20458;-71
2021/10/02 07:08:51;;;;;;;6.63;3.83;;;12.20;99.90;;;;;;4999692;28;20429;-71
2021/10/02 07:11:18;;;;;;;4.82;4.10;;;12.20;99.90;;;;;;4999496;28;20057;-72
2021/10/02 07:13:44;;;;;;;7.30;3.83;;;12.30;99.90;;;;;;4999684;28;20050;-71
2021/10/02 07:16:11;;;;;;;9.93;4.07;;;12.30;99.90;;;;;;4981186;28;20046;-70
2021/10/02 07:18:38;;;;;;;9.55;4.78;;;12.30;99.90;;;;;;4987552;28;20070;-71
2021/10/02 07:21:06;;;;;;;6.40;4.13;;;12.30;99.90;;;;;;4971019;28;20051;-71
2021/10/02 07:23:34;;;;;;;10.82;4.22;;;12.30;99.90;;;;;;4979135;28;20503;-71
2021/10/02 07:26:01;;;;;;;11.02;4.75;;;12.30;99.90;;;;;;4994823;28;20049;-71
2021/10/02 07:28:28;;;;;;;9.68;4.60;;;12.20;99.90;;;;;;4999215;28;20041;-71
2021/10/02 07:30:55;;;;;;;7.10;5.00;;;12.20;99.90;;;;;;4975104;28;20046;-71
2021/10/02 07:33:22;;;;;;;7.53;5.10;;;12.10;99.90;;;;;;4973783;28;20152;-71
2021/10/02 07:35:49;;;;;;;7.53;4.88;;;12.10;99.90;;;;;;4988725;28;20149;-69
2021/10/02 07:38:16;;;;;;;6.20;4.35;;;12.10;99.90;;;;;;4992659;28;20038;-71
2021/10/02 07:40:44;;;;;;;8.20;4.78;;;12.10;99.90;;;;;;4982428;28;20038;-72
2021/10/02 07:43:12;;;;;;;6.88;4.53;;;12.10;99.90;;;;;;5000002;28;20050;-70
2021/10/02 07:45:41;;;;;;;11.27;4.95;;;12.10;99.90;;;;;;4998097;28;20144;-70
2021/10/02 07:48:09;;;;;;;9.20;5.40;;;12.10;99.90;;;;;;4992251;28;20057;-70
2021/10/02 07:50:36;;;;;;;7.50;5.35;;;12.10;99.90;;;;;;4971737;28;20044;-70
2021/10/02 07:53:04;;;;;;;11.02;4.88;;;12.10;99.90;;;;;;4996944;28;20486;-69
2021/10/02 07:55:32;;;;;;;9.55;5.78;;;12.20;99.90;;;;;;5000587;28;20153;-70
2021/10/02 07:57:59;;;;;;;11.27;5.32;;;12.20;99.90;;;;;;4990072;28;20084;-69
2021/10/02 08:00:26;;;;;;;7.78;5.25;;;12.20;99.90;;;;;;4987013;28;20061;-70
2021/10/02 08:02:54;;;;;;;8.80;4.65;;;12.30;99.90;;;;;;5003725;28;20057;-70
2021/10/02 08:05:22;;;;;;;9.38;5.35;;;12.40;99.90;;;;;;4992241;28;20129;-70
2021/10/02 08:07:50;;;;;;;10.30;4.72;;;12.50;99.90;;;;;;4980466;28;20041;-69
2021/10/02 08:10:20;;;;;;;8.98;5.38;;;12.50;99.90;;;;;;4999079;28;20534;-72
2021/10/02 08:12:48;;;;;;;8.98;4.93;;;12.60;99.90;;;;;;4964033;28;20429;-70
2021/10/02 08:15:16;;;;;;;8.85;4.65;;;12.60;99.90;;;;;;4995308;28;20478;-69
2021/10/02 08:17:45;;;;;;;13.85;4.53;;;12.60;99.90;;;;;;5001111;28;20050;-70
2021/10/02 08:20:15;;;;;;;6.85;4.18;;;12.60;99.90;;;;;;4963821;28;20058;-70
2021/10/02 08:22:48;;;;;;;6.28;4.93;;;12.70;99.90;;;;;;4977253;28;20061;-69
2021/10/02 08:25:16;;;;;;;5.13;4.25;;;12.60;99.90;;;;;;4978403;28;20140;-71
2021/10/02 08:27:45;;;;;;;10.98;4.35;;;12.70;99.90;;;;;;4980090;28;20419;-70
2021/10/02 08:30:13;;;;;;;8.13;4.15;;;12.80;99.90;;;;;;4984971;28;20074;-71
2021/10/02 08:32:41;;;;;;;10.23;4.55;;;12.90;99.90;;;;;;5006526;28;20156;-70
2021/10/02 08:35:10;;;;;;;7.55;4.50;;;13.10;99.90;;;;;;4996387;28;20062;-72
2021/10/02 08:37:37;;;;;;;13.35;8.20;;;13.30;99.90;;;;;;4995960;28;20081;-68
2021/10/02 08:40:06;;;;;;;9.07;5.22;;;13.40;99.90;;;;;;4996870;28;20117;-70
2021/10/02 08:42:38;;;;;;;10.80;7.97;;;13.60;99.90;;;;;;4979894;28;20144;-70
2021/10/02 08:45:06;;;;;;;9.68;4.85;;;13.70;99.90;;;;;;4995234;28;20058;-69
2021/10/02 08:47:37;;;;;;;7.50;5.90;;;13.70;99.90;;;;;;4996074;28;20192;-70
2021/10/02 08:50:06;;;;;;;8.27;4.55;;;13.70;99.90;;;;;;4992551;28;20521;-70
2021/10/02 08:52:33;;;;;;;8.75;6.70;;;13.70;99.90;;;;;;4996343;28;20506;-69
2021/10/02 08:55:02;;;;;;;6.60;4.18;;;13.80;99.90;;;;;;5014274;28;20046;-68
2021/10/02 08:57:33;;;;;;;4.72;3.92;;;13.90;99.90;;;;;;5016990;28;20060;-68
2021/10/02 09:00:04;;;;;;;11.90;4.63;;;13.80;99.90;;;;;;4996577;28;20136;-71
2021/10/02 09:02:31;;;;;;;5.82;5.07;;;13.90;99.90;;;;;;4980079;28;20075;-71
2021/10/02 09:04:58;;;;;;;7.78;4.18;;;13.90;99.90;;;;;;4994978;28;20054;-69
2021/10/02 09:07:25;;;;;;;7.70;4.82;;;13.90;99.90;;;;;;4995558;28;20537;-72
2021/10/02 09:09:54;;;;;;;8.32;5.75;;;13.90;99.90;;;;;;4996387;28;20044;-70
2021/10/02 09:12:23;;;;;;;9.60;5.47;;;14.00;99.90;;;;;;4995250;28;20517;-69
2021/10/02 09:14:52;;;;;;;5.43;4.50;;;14.10;99.90;;;;;;4994106;28;20445;-70
2021/10/02 09:17:20;;;;;;;7.60;5.03;;;14.00;99.90;;;;;;4978409;28;20056;-70
2021/10/02 09:19:47;;;;;;;5.80;4.00;;;14.10;99.90;;;;;;4979995;28;20570;-71
2021/10/02 09:22:18;;;;;;;5.93;4.60;;;14.20;99.90;;;;;;4983938;28;20455;-70
2021/10/02 09:24:46;;;;;;;8.60;6.15;;;14.20;99.90;;;;;;4986610;28;20439;-70
2021/10/02 09:27:20;;;;;;;6.43;4.85;;;14.20;99.90;;;;;;4977628;28;20188;-71
2021/10/02 09:29:54;;;;;;;7.30;5.00;;;14.10;99.90;;;;;;4961131;28;20046;-72
2021/10/02 09:32:34;;;;;;;9.57;5.72;;;14.20;99.90;;;;;;4987371;28;20050;-71
2021/10/02 09:35:11;;;;;;;7.45;3.60;;;14.30;99.90;;;;;;4977764;28;20054;-71
2021/10/02 09:37:40;;;;;;;4.40;2.97;;;14.30;99.90;;;;;;4976734;28;20062;-71
2021/10/02 09:40:18;;;;;;;8.02;3.80;;;14.20;99.90;;;;;;4960901;28;20065;-69
2021/10/02 09:42:52;;;;;;;4.88;3.40;;;14.00;99.90;;;;;;4995375;28;20546;-71
2021/10/02 09:45:24;;;;;;;6.18;3.47;;;13.90;99.90;;;;;;4997698;28;20046;-68
2021/10/02 09:47:54;;;;;;;7.28;3.83;;;13.90;99.90;;;;;;4995725;28;20543;-70
2021/10/02 09:50:26;;;;;;;4.00;3.42;;;13.90;99.90;;;;;;4993373;28;20689;-70
2021/10/02 09:53:01;;;;;;;4.93;4.10;;;13.90;99.90;;;;;;4978561;28;20221;-70
2021/10/02 09:55:30;;;;;;;8.40;5.85;;;13.90;99.90;;;;;;4976945;28;20482;-72
2021/10/02 09:58:09;;;;;;;7.88;5.15;;;14.00;99.90;;;;;;4996131;28;20187;-71
2021/10/02 10:00:41;;;;;;;7.97;5.60;;;14.00;99.90;;;;;;4985202;28;20410;-71
2021/10/02 10:03:11;;;;;;;5.80;4.55;;;14.20;99.90;;;;;;4988122;28;20062;-70
2021/10/02 10:05:40;;;;;;;8.88;3.60;;;14.30;99.90;;;;;;4994169;28;20070;-70
2021/10/02 10:08:14;;;;;;;7.15;4.25;;;14.40;99.90;;;;;;4998842;28;20049;-70
2021/10/02 10:10:42;;;;;;;6.30;3.28;;;14.60;99.90;;;;;;5000043;28;20381;-71
2021/10/02 10:13:27;;;;;;;6.88;3.55;;;14.70;99.90;;;;;;4983124;28;20469;-69
2021/10/02 10:15:54;;;;;;;4.63;3.58;;;14.80;99.90;;;;;;4982502;28;20201;-70
2021/10/02 10:18:26;;;;;;;7.13;3.60;;;14.90;99.90;;;;;;4999586;28;20046;-72
2021/10/02 10:20:55;;;;;;;5.20;4.15;;;14.80;99.90;;;;;;4999575;28;20229;-68
2021/10/02 10:23:51;;;;;;;5.28;4.45;;;14.80;99.90;;;;;;4998964;28;20050;-70
2021/10/02 10:26:19;;;;;;;;;;;15.00;99.90;;;;;;4985995;28;20041;-69
2021/10/02 10:28:48;;;;;;;4.75;3.35;;;15.30;99.90;;;;;;4979663;28;20013;-69
2021/10/02 10:31:20;;;;;;;4.65;4.15;;;15.70;99.90;;;;;;4979131;28;20243;-69
2021/10/02 10:33:56;;;;;;;6.10;3.70;;;15.90;99.90;;;;;;4978988;28;20046;-71
2021/10/02 10:36:31;;;;;;;6.57;3.97;;;16.10;99.90;;;;;;4978739;28;20447;-71
2021/10/02 10:38:58;;;;;;;4.22;3.83;;;16.20;99.90;;;;;;4963215;28;20400;-72
2021/10/02 10:41:28;;;;;;;4.68;3.80;;;16.30;99.90;;;;;;4979286;28;20046;-72
2021/10/02 10:43:55;;;;;;;4.75;3.65;;;16.40;99.90;;;;;;4989914;28;20049;-71
2021/10/02 10:46:23;;;;;;;5.47;4.00;;;16.20;99.90;;;;;;4979106;28;20038;-74
2021/10/02 10:48:50;;;;;;;7.18;3.92;;;16.10;99.90;;;;;;5016613;28;20280;-69
2021/10/02 10:51:19;;;;;;;7.22;4.20;;;16.10;99.90;;;;;;4995215;28;20306;-71
2021/10/02 10:53:49;;;;;;;7.53;4.57;;;16.20;99.90;;;;;;4997311;28;20077;-71
2021/10/02 10:56:18;;;;;;;4.70;4.15;;;16.20;99.90;;;;;;4988934;28;20199;-71
2021/10/02 10:58:58;;;;;;;9.18;4.63;;;16.30;99.90;;;;;;5000573;28;20066;-70
2021/10/02 11:01:40;;;;;;;7.38;4.95;;;16.50;99.90;;;;;;4971256;28;20489;-72
2021/10/02 11:04:31;;;;;;;8.43;5.07;;;16.80;99.90;;;;;;4975180;28;20148;-72
2021/10/02 11:06:59;;;;;;;4.30;4.00;;;17.00;99.90;;;;;;4998290;28;20552;-70
2021/10/02 11:09:40;;;;;;;6.85;3.83;;;17.00;99.90;;;;;;5000691;28;20510;-71
2021/10/02 11:12:12;;;;;;;5.05;4.22;;;17.10;99.90;;;;;;4997825;28;20053;-71
2021/10/02 11:14:51;;;;;;;4.68;4.25;;;17.20;99.90;;;;;;4997252;28;20053;-69
2021/10/02 11:17:35;;;;;;;4.60;4.20;;;17.50;99.90;;;;;;4979029;28;20726;-71
2021/10/02 11:20:16;;;;;;;4.63;4.32;;;17.50;99.90;;;;;;5000490;28;20058;-73
2021/10/02 11:23:41;;;;;;;4.65;4.35;;;17.70;99.90;;;;;;4998245;28;20064;-72
2021/10/02 11:26:24;;;;;;;5.38;4.57;;;18.00;99.90;;;;;;4975701;28;20042;-74
2021/10/02 11:29:16;;;;;;;4.90;4.60;;;17.70;99.90;;;;;;4963973;28;20062;-71
2021/10/02 11:31:43;;;;;;;5.35;4.80;;;17.20;99.90;;;;;;4955157;28;20050;-71
2021/10/02 11:34:38;;;;;;;4.45;4.15;;;17.10;99.90;;;;;;4970718;28;20060;-69
2021/10/02 11:37:10;;;;;;;4.38;3.90;;;17.00;99.90;;;;;;4978702;28;20053;-71
2021/10/02 11:39:37;;;;;;;4.15;3.72;;;16.90;99.90;;;;;;4985475;28;20061;-72
2021/10/02 11:42:07;;;;;;;4.50;4.10;;;17.10;99.90;;;;;;4984908;28;20541;-70
2021/10/02 11:44:37;;;;;;;3.92;3.63;;;17.10;99.90;;;;;;4982213;28;20310;-71
2021/10/02 11:47:26;;;;;;;4.20;4.00;;;17.10;99.90;;;;;;4995708;28;20474;-72
2021/10/02 11:50:08;;;;;;;5.10;4.63;;;17.20;99.90;;;;;;4996423;28;20046;-70
2021/10/02 11:52:37;;;;;;;5.05;4.22;;;17.00;99.90;;;;;;4997352;28;20241;-71
2021/10/02 11:55:40;;;;;;;6.85;4.32;;;16.80;99.90;;;;;;4997820;28;20061;-72
2021/10/02 11:58:07;;;;;;;5.32;4.88;;;17.00;99.90;;;;;;4979824;28;20529;-72
2021/10/02 12:00:58;;;;;;;5.15;3.90;;;17.00;99.90;;;;;;4992496;28;20042;-71
2021/10/02 12:03:28;;;;;;;5.30;4.80;;;17.00;99.90;;;;;;4982507;28;20141;-72
2021/10/02 12:05:58;;;;;;;6.53;4.50;;;16.80;99.90;;;;;;4998700;28;20037;-71
2021/10/02 12:08:26;;;;;;;4.88;4.40;;;16.90;99.90;;;;;;4997542;28;20329;-71
2021/10/02 12:11:12;;;;;;;5.63;5.20;;;16.90;99.90;;;;;;4998317;28;20046;-73
2021/10/02 12:13:46;;;;;;;5.88;5.40;;;16.80;99.90;;;;;;4964770;28;20140;-71
2021/10/02 12:16:20;;;;;;;6.40;5.60;;;16.50;99.90;;;;;;4996640;28;20041;-68
2021/10/02 12:18:57;;;;;;;6.30;5.68;;;16.30;99.90;;;;;;4977761;28;20462;-70
2021/10/02 12:21:27;;;;;;;4.93;4.53;;;16.10;99.90;;;;;;4999391;28;20069;-70
2021/10/02 12:23:54;;;;;;;5.20;4.80;;;16.20;99.90;;;;;;4997008;28;20049;-68
2021/10/02 12:26:21;;;;;;;5.50;4.30;;;16.20;99.90;;;;;;4997466;28;20053;-69
2021/10/02 12:28:48;;;;;;;5.47;4.53;;;16.10;99.90;;;;;;4998071;28;20056;-72
2021/10/02 12:31:15;;;;;;;4.97;4.57;;;15.90;99.90;;;;;;4986462;28;20250;-72
2021/10/02 12:33:42;;;;;;;4.07;3.55;;;15.70;99.90;;;;;;4997433;28;20053;-72
2021/10/02 12:36:09;;;;;;;5.00;4.50;;;15.60;99.90;;;;;;4999531;28;20056;-71
2021/10/02 12:38:45;;;;;;;7.75;4.55;;;15.60;99.90;;;;;;4995393;28;20497;-74
2021/10/02 12:41:12;;;;;;;5.97;3.83;;;15.50;99.90;;;;;;4996609;28;20104;-69
2021/10/02 12:43:39;;;;;;;6.38;4.20;;;15.50;99.90;;;;;;4962349;28;20041;-70
2021/10/02 12:46:17;;;;;;;6.22;4.32;;;15.50;99.90;;;;;;4996680;28;20513;-70
2021/10/02 12:48:45;;;;;;;4.13;3.30;;;15.50;99.90;;;;;;4997550;28;20050;-69
2021/10/02 12:51:13;;;;;;;5.80;3.85;;;15.40;99.90;;;;;;4996732;28;20100;-71
2021/10/02 12:53:41;;;;;;;5.72;3.70;;;15.40;99.90;;;;;;4980665;28;20532;-71
2021/10/02 12:56:16;;;;;;;5.32;4.18;;;15.40;99.90;;;;;;4977524;28;20483;-72
2021/10/02 12:58:44;;;;;;;4.55;3.95;;;15.30;99.90;;;;;;4996909;28;20271;-71
2021/10/02 13:01:11;;;;;;;5.88;4.18;;;15.10;99.90;;;;;;4985441;28;20047;-71
2021/10/02 13:03:42;;;;;;;4.20;3.80;;;15.10;99.90;;;;;;4985699;28;20127;-71
2021/10/02 13:06:08;;;;;;;4.63;3.55;;;15.00;99.90;;;;;;4995791;28;20038;-70
2021/10/02 13:08:35;;;;;;;5.45;3.83;;;15.10;99.90;;;;;;4994560;28;20212;-70
2021/10/02 13:11:03;;;;;;;3.83;3.47;;;15.20;99.90;;;;;;4977909;28;20225;-70
2021/10/02 13:13:30;;;;;;;6.95;4.07;;;15.20;99.90;;;;;;4987087;28;20050;-70
2021/10/02 13:15:58;;;;;;;5.47;4.40;;;15.30;99.90;;;;;;4994348;28;20050;-70
2021/10/02 13:18:27;;;;;;;6.80;4.15;;;15.40;99.90;;;;;;4995493;28;20556;-70
2021/10/02 13:20:56;;;;;;;6.38;3.92;;;15.50;99.90;;;;;;4995711;28;20163;-69
2021/10/02 13:23:40;;;;;;;4.95;4.15;;;15.60;99.90;;;;;;4978541;28;20401;-69
2021/10/02 13:26:16;;;;;;;7.80;4.45;;;15.60;99.90;;;;;;4994530;28;20058;-69
2021/10/02 13:28:47;;;;;;;6.05;4.07;;;15.70;99.90;;;;;;4996229;28;20130;-72
2021/10/02 13:31:16;;;;;;;4.68;4.20;;;15.70;99.90;;;;;;4982418;28;20049;-70
2021/10/02 13:33:47;;;;;;;8.80;4.80;;;15.70;99.90;;;;;;4980827;28;20045;-69
2021/10/02 13:36:26;;;;;;;6.35;4.22;;;15.80;99.90;;;;;;4978198;28;20422;-70
2021/10/02 13:38:54;;;;;;;6.85;4.28;;;15.90;99.90;;;;;;4975938;28;20405;-70
2021/10/02 13:41:21;;;;;;;6.63;4.60;;;15.90;99.90;;;;;;4987502;28;20042;-72
2021/10/02 13:44:01;;;;;;;9.18;4.70;;;15.90;99.90;;;;;;4995874;28;20041;-71
2021/10/02 13:46:38;;;;;;;9.65;5.65;;;16.10;99.90;;;;;;4990357;28;20146;-70
2021/10/02 13:49:08;;;;;;;5.88;4.32;;;16.00;99.90;;;;;;5013159;28;20389;-71
2021/10/02 13:51:35;;;;;;;7.30;4.47;;;16.10;99.90;;;;;;4999923;28;20061;-71
2021/10/02 13:54:03;;;;;;;6.35;4.75;;;16.00;99.90;;;;;;4994666;28;20049;-71